createdAt,value
2016-07-31T00:01:00.320Z,1006.01
2016-07-31T00:02:03.971Z,1006.06
2016-07-31T00:03:07.963Z,1006.02
2016-07-31T00:04:11.622Z,1005.95
2016-07-31T00:05:15.280Z,1005.96
2016-07-31T00:06:18.925Z,1006.01
2016-07-31T00:07:22.552Z,1005.91
2016-07-31T00:08:26.205Z,1005.97
2016-07-31T00:10:37.986Z,1005.92
2016-07-31T00:11:41.606Z,1005.95
2016-07-31T00:12:45.453Z,1005.97
2016-07-31T00:13:49.066Z,1005.98
2016-07-31T00:14:52.713Z,1005.96
2016-07-31T00:15:56.339Z,1005.88
2016-07-31T00:16:59.989Z,1005.94
2016-07-31T00:18:03.848Z,1005.94
2016-07-31T00:19:07.505Z,1005.98
2016-07-31T00:20:11.186Z,1005.96
2016-07-31T00:21:14.855Z,1005.89
2016-07-31T00:22:18.716Z,1005.90
2016-07-31T00:23:22.363Z,1005.90
2016-07-31T00:24:26.014Z,1005.90
2016-07-31T00:25:29.685Z,1005.90
2016-07-31T00:26:33.369Z,1005.88
2016-07-31T00:27:37.030Z,1005.86
2016-07-31T00:28:40.691Z,1005.85
2016-07-31T00:29:44.334Z,1005.88
2016-07-31T00:30:47.987Z,1005.92
2016-07-31T00:31:51.879Z,1005.88
2016-07-31T00:32:55.571Z,1005.85
2016-07-31T00:33:59.240Z,1005.79
2016-07-31T00:35:02.857Z,1005.76
2016-07-31T00:36:06.514Z,1005.86
2016-07-31T00:37:10.139Z,1005.75
2016-07-31T00:38:13.787Z,1005.78
2016-07-31T00:39:17.484Z,1005.77
2016-07-31T00:40:21.144Z,1005.65
2016-07-31T00:41:24.788Z,1005.62
2016-07-31T00:42:28.445Z,1005.73
2016-07-31T00:43:32.091Z,1005.62
2016-07-31T00:44:35.756Z,1005.61
2016-07-31T00:45:39.408Z,1005.62
2016-07-31T00:46:43.071Z,1005.57
2016-07-31T00:47:46.683Z,1005.60
2016-07-31T00:48:50.355Z,1005.56
2016-07-31T00:49:53.992Z,1005.57
2016-07-31T00:50:57.659Z,1005.57
2016-07-31T00:52:01.301Z,1005.56
2016-07-31T00:53:04.953Z,1005.53
2016-07-31T00:54:08.625Z,1005.57
2016-07-31T00:55:12.260Z,1005.43
2016-07-31T00:56:15.908Z,1005.48
2016-07-31T00:57:19.575Z,1005.52
2016-07-31T00:58:23.239Z,1005.47
2016-07-31T00:59:26.906Z,1005.47
2016-07-31T01:00:30.548Z,1005.50
2016-07-31T01:01:34.199Z,1005.49
2016-07-31T01:02:37.865Z,1005.51
2016-07-31T01:03:41.737Z,1005.48
2016-07-31T01:04:45.386Z,1005.50
2016-07-31T01:05:49.055Z,1005.46
2016-07-31T01:06:52.704Z,1005.50
2016-07-31T01:07:56.363Z,1005.45
2016-07-31T01:09:00.024Z,1005.41
2016-07-31T01:10:03.681Z,1005.43
2016-07-31T01:11:07.354Z,1005.42
2016-07-31T01:12:11.039Z,1005.43
2016-07-31T01:13:14.690Z,1005.43
2016-07-31T01:14:18.330Z,1005.44
2016-07-31T01:15:21.999Z,1005.36
2016-07-31T01:16:25.658Z,1005.49
2016-07-31T01:17:29.307Z,1005.41
2016-07-31T01:18:32.968Z,1005.43
2016-07-31T01:19:36.626Z,1005.51
2016-07-31T01:20:40.296Z,1005.48
2016-07-31T01:21:43.950Z,1005.40
2016-07-31T01:22:47.609Z,1005.43
2016-07-31T01:23:51.288Z,1005.47
2016-07-31T01:24:54.940Z,1005.38
2016-07-31T01:25:58.778Z,1005.41
2016-07-31T01:27:02.423Z,1005.45
2016-07-31T01:28:06.260Z,1005.39
2016-07-31T01:29:09.920Z,1005.37
2016-07-31T01:30:13.606Z,1005.40
2016-07-31T01:31:17.249Z,1005.40
2016-07-31T01:32:20.910Z,1005.38
2016-07-31T01:33:24.582Z,1005.38
2016-07-31T01:34:28.231Z,1005.34
2016-07-31T01:35:31.903Z,1005.34
2016-07-31T01:36:35.535Z,1005.36
2016-07-31T01:37:39.190Z,1005.47
2016-07-31T01:38:42.837Z,1005.37
2016-07-31T01:39:46.505Z,1005.38
2016-07-31T01:40:50.151Z,1005.41
2016-07-31T01:41:53.818Z,1005.49
2016-07-31T01:42:57.484Z,1005.40
2016-07-31T01:44:01.182Z,1005.44
2016-07-31T01:45:04.852Z,1005.52
2016-07-31T01:46:08.504Z,1005.49
2016-07-31T01:47:12.153Z,1005.50
2016-07-31T01:48:15.806Z,1005.50
2016-07-31T01:49:19.476Z,1005.49
2016-07-31T01:50:23.136Z,1005.52
2016-07-31T01:51:26.829Z,1005.58
2016-07-31T01:52:31.376Z,1005.56
2016-07-31T01:53:35.066Z,1005.54
2016-07-31T01:54:38.929Z,1005.57
2016-07-31T01:55:42.584Z,1005.60
2016-07-31T01:56:46.252Z,1005.66
2016-07-31T01:57:49.884Z,1005.60
2016-07-31T01:58:53.546Z,1005.62
2016-07-31T01:59:57.223Z,1005.65
2016-07-31T02:01:00.871Z,1005.68
2016-07-31T02:02:04.488Z,1005.66
2016-07-31T02:03:08.156Z,1005.61
2016-07-31T02:04:11.828Z,1005.64
2016-07-31T02:05:15.500Z,1005.64
2016-07-31T02:06:19.156Z,1005.69
2016-07-31T02:07:22.820Z,1005.64
2016-07-31T02:08:26.447Z,1005.69
2016-07-31T02:09:30.295Z,1005.72
2016-07-31T02:10:33.927Z,1005.66
2016-07-31T02:11:37.808Z,1005.57
2016-07-31T02:12:41.503Z,1005.66
2016-07-31T02:13:45.170Z,1005.69
2016-07-31T02:14:48.845Z,1005.67
2016-07-31T02:15:52.505Z,1005.60
2016-07-31T02:16:56.346Z,1005.68
2016-07-31T02:17:59.994Z,1005.63
2016-07-31T02:19:03.656Z,1005.66
2016-07-31T02:20:07.304Z,1005.69
2016-07-31T02:21:10.994Z,1005.69
2016-07-31T02:22:14.605Z,1005.75
2016-07-31T02:23:18.236Z,1005.70
2016-07-31T02:24:21.912Z,1005.73
2016-07-31T02:25:25.579Z,1005.68
2016-07-31T02:26:29.241Z,1005.75
2016-07-31T02:27:32.900Z,1005.70
2016-07-31T02:28:36.594Z,1005.68
2016-07-31T02:29:40.468Z,1005.65
2016-07-31T02:30:44.146Z,1005.68
2016-07-31T02:31:47.831Z,1005.72
2016-07-31T02:32:51.485Z,1005.70
2016-07-31T02:33:55.133Z,1005.70
2016-07-31T02:34:58.835Z,1005.74
2016-07-31T02:36:02.533Z,1005.68
2016-07-31T02:37:06.182Z,1005.74
2016-07-31T02:38:09.859Z,1005.73
2016-07-31T02:39:13.529Z,1005.69
2016-07-31T02:40:17.253Z,1005.75
2016-07-31T02:41:21.113Z,1005.71
2016-07-31T02:42:24.769Z,1005.68
2016-07-31T02:44:31.648Z,1005.70
2016-07-31T02:45:35.322Z,1005.66
2016-07-31T02:46:38.978Z,1005.75
2016-07-31T02:47:42.625Z,1005.70
2016-07-31T02:48:46.300Z,1005.69
2016-07-31T02:49:49.935Z,1005.71
2016-07-31T02:50:53.619Z,1005.67
2016-07-31T02:51:57.268Z,1005.70
2016-07-31T02:53:01.109Z,1005.67
2016-07-31T02:54:04.756Z,1005.68
2016-07-31T02:55:08.392Z,1005.71
2016-07-31T02:56:12.861Z,1005.70
2016-07-31T02:57:16.518Z,1005.74
2016-07-31T02:59:24.170Z,1005.80
2016-07-31T03:00:27.843Z,1005.79
2016-07-31T03:01:31.499Z,1005.68
2016-07-31T03:02:35.180Z,1005.79
2016-07-31T03:03:38.818Z,1005.72
2016-07-31T03:04:42.487Z,1005.70
2016-07-31T03:05:46.165Z,1005.65
2016-07-31T03:06:49.793Z,1005.63
2016-07-31T03:07:53.457Z,1005.74
2016-07-31T03:08:57.101Z,1005.78
2016-07-31T03:10:00.729Z,1005.70
2016-07-31T03:11:04.402Z,1005.70
2016-07-31T03:12:08.055Z,1005.64
2016-07-31T03:13:11.712Z,1005.63
2016-07-31T03:14:15.353Z,1005.58
2016-07-31T03:15:19.024Z,1005.59
2016-07-31T03:16:22.686Z,1005.61
2016-07-31T03:17:26.374Z,1005.66
2016-07-31T03:18:30.031Z,1005.61
2016-07-31T03:19:33.671Z,1005.56
2016-07-31T03:20:37.334Z,1005.54
2016-07-31T03:21:40.979Z,1005.61
2016-07-31T03:22:44.848Z,1005.66
2016-07-31T03:23:48.481Z,1005.56
2016-07-31T03:24:52.184Z,1005.52
2016-07-31T03:25:55.825Z,1005.49
2016-07-31T03:26:59.510Z,1005.52
2016-07-31T03:28:03.131Z,1005.41
2016-07-31T03:29:06.781Z,1005.44
2016-07-31T03:30:10.427Z,1005.45
2016-07-31T03:31:14.020Z,1005.39
2016-07-31T03:32:17.694Z,1005.42
2016-07-31T03:33:21.536Z,1005.43
2016-07-31T03:34:25.173Z,1005.37
2016-07-31T03:35:28.849Z,1005.38
2016-07-31T03:36:32.509Z,1005.38
2016-07-31T03:37:36.140Z,1005.31
2016-07-31T03:38:39.799Z,1005.36
2016-07-31T03:39:43.426Z,1005.35
2016-07-31T03:40:47.116Z,1005.29
2016-07-31T03:41:50.770Z,1005.32
2016-07-31T03:42:54.430Z,1005.28
2016-07-31T03:43:58.111Z,1005.34
2016-07-31T03:45:01.778Z,1005.37
2016-07-31T03:46:05.420Z,1005.28
2016-07-31T03:47:09.049Z,1005.26
2016-07-31T03:48:12.710Z,1005.23
2016-07-31T03:49:16.391Z,1005.24
2016-07-31T03:50:20.034Z,1005.21
2016-07-31T03:51:23.675Z,1005.21
2016-07-31T03:52:27.350Z,1005.24
2016-07-31T03:53:31.019Z,1005.24
2016-07-31T03:54:34.695Z,1005.16
2016-07-31T03:55:38.370Z,1005.16
2016-07-31T03:56:41.991Z,1005.17
2016-07-31T03:57:45.640Z,1005.14
2016-07-31T03:58:49.305Z,1005.03
2016-07-31T03:59:52.949Z,1005.07
2016-07-31T04:00:56.605Z,1005.04
2016-07-31T04:02:00.239Z,1005.08
2016-07-31T04:03:03.887Z,1005.01
2016-07-31T04:04:07.543Z,1005.01
2016-07-31T04:05:11.217Z,1004.98
2016-07-31T04:06:14.863Z,1005.04
2016-07-31T04:07:18.529Z,1005.11
2016-07-31T04:08:22.208Z,1005.09
2016-07-31T04:09:25.868Z,1005.02
2016-07-31T04:10:29.515Z,1005.05
2016-07-31T04:11:33.183Z,1005.12
2016-07-31T04:12:36.848Z,1005.08
2016-07-31T04:14:43.781Z,1005.10
2016-07-31T04:15:47.447Z,1005.09
2016-07-31T04:16:51.104Z,1005.03
2016-07-31T04:17:54.763Z,1005.09
2016-07-31T04:18:58.438Z,1005.05
2016-07-31T04:20:02.110Z,1005.05
2016-07-31T04:21:05.816Z,1005.06
2016-07-31T04:22:09.460Z,1005.07
2016-07-31T04:23:13.146Z,1005.10
2016-07-31T04:24:16.811Z,1005.12
2016-07-31T04:25:20.483Z,1005.09
2016-07-31T04:26:24.171Z,1005.13
2016-07-31T04:27:27.822Z,1005.14
2016-07-31T04:28:31.491Z,1005.19
2016-07-31T04:29:35.119Z,1005.16
2016-07-31T04:30:38.755Z,1005.11
2016-07-31T04:31:42.452Z,1005.20
2016-07-31T04:32:46.114Z,1005.20
2016-07-31T04:33:49.773Z,1005.11
2016-07-31T04:34:53.438Z,1005.26
2016-07-31T04:35:57.088Z,1005.18
2016-07-31T04:37:00.775Z,1005.21
2016-07-31T04:38:04.442Z,1005.18
2016-07-31T04:39:08.124Z,1005.18
2016-07-31T04:40:11.774Z,1005.17
2016-07-31T04:41:15.418Z,1005.26
2016-07-31T04:42:19.087Z,1005.17
2016-07-31T04:43:22.754Z,1005.23
2016-07-31T04:44:26.602Z,1005.17
2016-07-31T04:45:30.287Z,1005.19
2016-07-31T04:46:33.947Z,1005.21
2016-07-31T04:47:37.795Z,1005.18
2016-07-31T04:48:41.420Z,1005.14
2016-07-31T04:49:45.113Z,1005.07
2016-07-31T04:50:48.779Z,1005.19
2016-07-31T04:51:52.416Z,1005.16
2016-07-31T04:52:56.087Z,1005.21
2016-07-31T04:53:59.760Z,1005.25
2016-07-31T04:55:03.389Z,1005.20
2016-07-31T04:56:07.068Z,1005.24
2016-07-31T04:57:10.758Z,1005.27
2016-07-31T04:58:14.425Z,1005.23
2016-07-31T04:59:18.086Z,1005.30
2016-07-31T05:00:21.753Z,1005.25
2016-07-31T05:01:25.421Z,1005.27
2016-07-31T05:02:29.066Z,1005.28
2016-07-31T05:03:32.705Z,1005.23
2016-07-31T05:04:37.251Z,1005.18
2016-07-31T05:05:40.807Z,1005.19
2016-07-31T05:06:45.354Z,1005.18
2016-07-31T05:07:48.976Z,1005.27
2016-07-31T05:08:52.653Z,1005.22
2016-07-31T05:09:56.304Z,1005.19
2016-07-31T05:10:59.952Z,1005.19
2016-07-31T05:12:03.589Z,1005.26
2016-07-31T05:13:07.263Z,1005.23
2016-07-31T05:14:10.920Z,1005.28
2016-07-31T05:15:14.592Z,1005.26
2016-07-31T05:16:18.292Z,1005.19
2016-07-31T05:17:21.940Z,1005.22
2016-07-31T05:18:25.573Z,1005.25
2016-07-31T05:19:29.234Z,1005.23
2016-07-31T05:20:32.912Z,1005.36
2016-07-31T05:21:36.586Z,1005.29
2016-07-31T05:22:40.223Z,1005.25
2016-07-31T05:23:43.940Z,1005.25
2016-07-31T05:24:47.607Z,1005.32
2016-07-31T05:25:51.277Z,1005.32
2016-07-31T05:26:54.936Z,1005.29
2016-07-31T05:27:58.586Z,1005.36
2016-07-31T05:30:05.513Z,1005.31
2016-07-31T05:31:09.377Z,1005.40
2016-07-31T05:32:13.016Z,1005.43
2016-07-31T05:33:16.846Z,1005.37
2016-07-31T05:34:20.506Z,1005.42
2016-07-31T05:35:24.149Z,1005.52
2016-07-31T05:36:27.823Z,1005.49
2016-07-31T05:37:31.668Z,1005.56
2016-07-31T05:38:35.312Z,1005.48
2016-07-31T05:39:39.002Z,1005.61
2016-07-31T05:40:42.657Z,1005.59
2016-07-31T05:41:46.339Z,1005.61
2016-07-31T05:42:50.007Z,1005.64
2016-07-31T05:43:53.841Z,1005.67
2016-07-31T05:44:57.490Z,1005.66
2016-07-31T05:46:01.152Z,1005.76
2016-07-31T05:47:04.798Z,1005.76
2016-07-31T05:48:08.431Z,1005.79
2016-07-31T05:49:12.095Z,1005.78
2016-07-31T05:50:15.737Z,1005.75
2016-07-31T05:51:19.403Z,1005.78
2016-07-31T05:52:23.060Z,1005.79
2016-07-31T05:53:26.705Z,1005.83
2016-07-31T05:54:30.554Z,1005.76
2016-07-31T05:55:34.209Z,1005.81
2016-07-31T05:56:37.891Z,1005.84
2016-07-31T05:57:41.542Z,1005.81
2016-07-31T05:58:45.224Z,1005.81
2016-07-31T05:59:48.926Z,1005.87
2016-07-31T06:00:52.587Z,1005.73
2016-07-31T06:01:56.273Z,1005.81
2016-07-31T06:02:59.964Z,1005.77
2016-07-31T06:04:03.628Z,1005.72
2016-07-31T06:05:07.273Z,1005.81
2016-07-31T06:06:10.917Z,1005.81
2016-07-31T06:07:14.575Z,1005.87
2016-07-31T06:08:18.207Z,1005.79
2016-07-31T06:09:21.859Z,1005.82
2016-07-31T06:10:25.531Z,1005.77
2016-07-31T06:11:29.179Z,1005.77
2016-07-31T06:12:32.846Z,1005.80
2016-07-31T06:13:36.506Z,1005.89
2016-07-31T06:14:40.169Z,1005.89
2016-07-31T06:15:43.823Z,1005.79
2016-07-31T06:16:47.490Z,1005.89
2016-07-31T06:17:51.182Z,1005.79
2016-07-31T06:18:54.834Z,1005.83
2016-07-31T06:19:58.491Z,1005.83
2016-07-31T06:21:02.181Z,1005.85
2016-07-31T06:22:05.817Z,1005.84
2016-07-31T06:23:09.486Z,1005.79
2016-07-31T06:24:13.140Z,1005.81
2016-07-31T06:25:16.806Z,1005.86
2016-07-31T06:26:20.457Z,1005.86
2016-07-31T06:27:24.116Z,1005.80
2016-07-31T06:28:27.767Z,1005.82
2016-07-31T06:29:31.458Z,1005.85
2016-07-31T06:30:35.307Z,1005.86
2016-07-31T06:31:38.972Z,1005.87
2016-07-31T06:32:42.645Z,1005.89
2016-07-31T06:33:46.335Z,1005.90
2016-07-31T06:34:50.039Z,1005.88
2016-07-31T06:35:53.726Z,1005.87
2016-07-31T06:36:57.382Z,1005.91
2016-07-31T06:38:01.028Z,1005.91
2016-07-31T06:39:04.717Z,1005.86
2016-07-31T06:40:08.371Z,1005.87
2016-07-31T06:41:12.204Z,1005.93
2016-07-31T06:42:15.848Z,1005.87
2016-07-31T06:43:19.524Z,1005.90
2016-07-31T06:45:26.460Z,1005.91
2016-07-31T06:46:30.116Z,1005.87
2016-07-31T06:47:33.791Z,1005.82
2016-07-31T06:48:37.427Z,1005.86
2016-07-31T06:49:41.084Z,1005.83
2016-07-31T06:50:44.753Z,1005.79
2016-07-31T06:51:48.419Z,1005.91
2016-07-31T06:52:52.101Z,1005.88
2016-07-31T06:53:55.753Z,1005.91
2016-07-31T06:54:59.418Z,1005.89
2016-07-31T06:56:03.090Z,1005.95
2016-07-31T06:57:06.733Z,1005.89
2016-07-31T06:58:10.366Z,1005.90
2016-07-31T06:59:14.013Z,1005.91
2016-07-31T07:00:17.651Z,1005.96
2016-07-31T07:01:21.337Z,1005.86
2016-07-31T07:02:24.999Z,1005.92
2016-07-31T07:03:28.667Z,1005.93
2016-07-31T07:04:32.340Z,1005.97
2016-07-31T07:05:36.009Z,1005.90
2016-07-31T07:06:39.870Z,1005.89
2016-07-31T07:07:43.537Z,1005.92
2016-07-31T07:08:47.171Z,1005.95
2016-07-31T07:09:51.055Z,1005.87
2016-07-31T07:10:54.680Z,1005.88
2016-07-31T07:11:58.330Z,1005.89
2016-07-31T07:13:02.003Z,1005.95
2016-07-31T07:14:05.688Z,1005.97
2016-07-31T07:15:09.345Z,1005.93
2016-07-31T07:16:12.998Z,1005.91
2016-07-31T07:17:16.671Z,1005.98
2016-07-31T07:18:20.497Z,1005.94
2016-07-31T07:19:24.173Z,1006.00
2016-07-31T07:20:27.869Z,1006.03
2016-07-31T07:21:31.641Z,1006.02
2016-07-31T07:22:35.287Z,1006.00
2016-07-31T07:23:38.942Z,1005.99
2016-07-31T07:24:42.617Z,1005.93
2016-07-31T07:25:46.290Z,1006.01
2016-07-31T07:26:49.967Z,1006.04
2016-07-31T07:27:53.628Z,1005.97
2016-07-31T07:28:57.288Z,1005.98
2016-07-31T07:30:00.955Z,1005.98
2016-07-31T07:31:04.626Z,1006.00
2016-07-31T07:32:08.300Z,1005.99
2016-07-31T07:33:12.047Z,1006.05
2016-07-31T07:34:15.720Z,1006.02
2016-07-31T07:35:19.366Z,1006.02
2016-07-31T07:36:23.037Z,1006.09
2016-07-31T07:37:26.884Z,1006.10
2016-07-31T07:38:30.493Z,1006.00
2016-07-31T07:39:34.127Z,1006.06
2016-07-31T07:40:37.799Z,1006.05
2016-07-31T07:41:41.471Z,1006.03
2016-07-31T07:42:45.158Z,1006.06
2016-07-31T07:43:48.818Z,1006.03
2016-07-31T07:44:52.505Z,1006.01
2016-07-31T07:45:56.192Z,1006.00
2016-07-31T07:46:59.856Z,1005.93
2016-07-31T07:48:03.512Z,1005.95
2016-07-31T07:49:07.183Z,1005.93
2016-07-31T07:50:10.825Z,1006.04
2016-07-31T07:51:14.491Z,1005.96
2016-07-31T07:52:18.361Z,1005.97
2016-07-31T07:53:22.014Z,1005.99
2016-07-31T07:54:25.689Z,1005.98
2016-07-31T07:55:29.342Z,1005.98
2016-07-31T07:56:33.028Z,1005.97
2016-07-31T07:57:36.687Z,1006.00
2016-07-31T07:58:40.352Z,1006.02
2016-07-31T07:59:44.015Z,1005.98
2016-07-31T08:00:47.661Z,1006.11
2016-07-31T08:01:51.339Z,1006.08
2016-07-31T08:02:55.221Z,1006.08
2016-07-31T08:03:58.859Z,1006.06
2016-07-31T08:05:02.776Z,1006.09
2016-07-31T08:06:06.451Z,1006.10
2016-07-31T08:07:10.124Z,1006.05
2016-07-31T08:08:13.764Z,1006.15
2016-07-31T08:09:17.435Z,1006.13
2016-07-31T08:10:21.131Z,1006.09
2016-07-31T08:11:24.808Z,1006.11
2016-07-31T08:12:28.470Z,1006.20
2016-07-31T08:13:32.156Z,1006.14
2016-07-31T08:15:39.068Z,1006.13
2016-07-31T08:16:42.726Z,1006.06
2016-07-31T08:17:46.410Z,1006.23
2016-07-31T08:18:50.052Z,1006.17
2016-07-31T08:19:53.704Z,1006.22
2016-07-31T08:20:57.323Z,1006.15
2016-07-31T08:22:00.987Z,1006.20
2016-07-31T08:23:04.666Z,1006.19
2016-07-31T08:24:08.332Z,1006.18
2016-07-31T08:25:12.023Z,1006.16
2016-07-31T08:26:15.692Z,1006.20
2016-07-31T08:27:19.345Z,1006.17
2016-07-31T08:28:22.991Z,1006.15
2016-07-31T08:29:26.656Z,1006.22
2016-07-31T08:30:30.345Z,1006.14
2016-07-31T08:31:34.028Z,1006.18
2016-07-31T08:32:37.679Z,1006.20
2016-07-31T08:33:41.367Z,1006.11
2016-07-31T08:34:45.022Z,1006.16
2016-07-31T08:35:48.687Z,1006.22
2016-07-31T08:36:52.345Z,1006.18
2016-07-31T08:37:56.036Z,1006.17
2016-07-31T08:38:59.710Z,1006.14
2016-07-31T08:40:03.368Z,1006.17
2016-07-31T08:41:07.069Z,1006.14
2016-07-31T08:42:10.736Z,1006.16
2016-07-31T08:43:14.456Z,1006.16
2016-07-31T08:44:18.113Z,1006.24
2016-07-31T08:45:21.783Z,1006.22
2016-07-31T08:46:25.497Z,1006.17
2016-07-31T08:47:29.170Z,1006.22
2016-07-31T08:48:32.787Z,1006.23
2016-07-31T08:49:36.430Z,1006.25
2016-07-31T08:50:40.089Z,1006.19
2016-07-31T08:51:43.752Z,1006.14
2016-07-31T08:52:47.439Z,1006.22
2016-07-31T08:53:51.083Z,1006.28
2016-07-31T08:54:54.959Z,1006.16
2016-07-31T08:55:58.637Z,1006.26
2016-07-31T08:57:02.304Z,1006.22
2016-07-31T08:58:06.165Z,1006.26
2016-07-31T08:59:09.855Z,1006.22
2016-07-31T09:00:13.510Z,1006.23
2016-07-31T09:01:17.148Z,1006.25
2016-07-31T09:02:20.815Z,1006.19
2016-07-31T09:03:24.461Z,1006.27
2016-07-31T09:04:28.101Z,1006.26
2016-07-31T09:05:31.966Z,1006.28
2016-07-31T09:06:35.640Z,1006.24
2016-07-31T09:07:39.488Z,1006.22
2016-07-31T09:08:43.137Z,1006.31
2016-07-31T09:09:46.769Z,1006.27
2016-07-31T09:10:50.420Z,1006.20
2016-07-31T09:11:54.102Z,1006.23
2016-07-31T09:12:57.746Z,1006.21
2016-07-31T09:14:01.405Z,1006.18
2016-07-31T09:15:05.055Z,1006.23
2016-07-31T09:16:08.729Z,1006.19
2016-07-31T09:17:12.590Z,1006.12
2016-07-31T09:18:16.256Z,1006.23
2016-07-31T09:19:20.133Z,1006.19
2016-07-31T09:20:23.795Z,1006.14
2016-07-31T09:21:27.487Z,1006.21
2016-07-31T09:22:31.215Z,1006.18
2016-07-31T09:23:34.880Z,1006.24
2016-07-31T09:24:38.752Z,1006.23
2016-07-31T09:25:42.422Z,1006.16
2016-07-31T09:26:46.114Z,1006.21
2016-07-31T09:27:49.754Z,1006.24
2016-07-31T09:28:53.440Z,1006.20
2016-07-31T09:31:00.420Z,1006.19
2016-07-31T09:32:04.064Z,1006.14
2016-07-31T09:33:07.944Z,1006.29
2016-07-31T09:34:11.600Z,1006.22
2016-07-31T09:35:15.501Z,1006.24
2016-07-31T09:36:19.176Z,1006.23
2016-07-31T09:37:23.071Z,1006.33
2016-07-31T09:38:26.753Z,1006.34
2016-07-31T09:39:30.445Z,1006.30
2016-07-31T09:40:34.104Z,1006.41
2016-07-31T09:41:37.764Z,1006.41
2016-07-31T09:42:41.434Z,1006.42
2016-07-31T09:43:45.126Z,1006.37
2016-07-31T09:44:48.809Z,1006.34
2016-07-31T09:45:52.458Z,1006.36
2016-07-31T09:46:56.302Z,1006.34
2016-07-31T09:47:59.981Z,1006.27
2016-07-31T09:49:03.616Z,1006.26
2016-07-31T09:50:07.278Z,1006.30
2016-07-31T09:51:10.930Z,1006.22
2016-07-31T09:52:14.626Z,1006.25
2016-07-31T09:53:18.255Z,1006.29
2016-07-31T09:54:21.928Z,1006.35
2016-07-31T09:55:25.579Z,1006.35
2016-07-31T09:56:29.205Z,1006.40
2016-07-31T09:57:32.865Z,1006.32
2016-07-31T09:58:36.486Z,1006.40
2016-07-31T09:59:40.154Z,1006.30
2016-07-31T10:00:43.811Z,1006.40
2016-07-31T10:01:47.471Z,1006.46
2016-07-31T10:02:51.136Z,1006.38
2016-07-31T10:03:54.845Z,1006.43
2016-07-31T10:04:58.530Z,1006.46
2016-07-31T10:06:02.376Z,1006.44
2016-07-31T10:07:06.030Z,1006.40
2016-07-31T10:08:09.711Z,1006.45
2016-07-31T10:09:13.350Z,1006.52
2016-07-31T10:10:17.042Z,1006.49
2016-07-31T10:11:20.706Z,1006.48
2016-07-31T10:12:24.380Z,1006.48
2016-07-31T10:13:28.047Z,1006.47
2016-07-31T10:14:31.723Z,1006.53
2016-07-31T10:15:35.375Z,1006.55
2016-07-31T10:16:39.067Z,1006.55
2016-07-31T10:17:42.722Z,1006.54
2016-07-31T10:18:46.397Z,1006.55
2016-07-31T10:19:50.091Z,1006.51
2016-07-31T10:20:53.778Z,1006.63
2016-07-31T10:21:57.439Z,1006.57
2016-07-31T10:23:01.104Z,1006.57
2016-07-31T10:24:04.798Z,1006.61
2016-07-31T10:25:08.492Z,1006.61
2016-07-31T10:26:12.114Z,1006.53
2016-07-31T10:27:15.774Z,1006.56
2016-07-31T10:38:55.845Z,1006.56
2016-07-31T10:40:18.351Z,1006.61
2016-07-31T10:41:21.795Z,1006.70
2016-07-31T10:42:25.607Z,1006.61
2016-07-31T10:43:29.222Z,1006.55
2016-07-31T10:44:32.855Z,1006.58
2016-07-31T10:45:36.501Z,1006.58
2016-07-31T10:46:40.183Z,1006.54
2016-07-31T10:47:43.853Z,1006.57
2016-07-31T10:48:47.479Z,1006.49
2016-07-31T10:49:51.182Z,1006.48
2016-07-31T10:50:54.874Z,1006.44
2016-07-31T10:51:58.527Z,1006.44
2016-07-31T10:53:02.197Z,1006.46
2016-07-31T10:54:05.860Z,1006.45
2016-07-31T10:55:09.534Z,1006.43
2016-07-31T10:56:13.224Z,1006.41
2016-07-31T10:57:16.925Z,1006.46
2016-07-31T10:58:20.595Z,1006.46
2016-07-31T10:59:24.312Z,1006.49
2016-07-31T11:01:31.244Z,1006.46
2016-07-31T11:02:34.927Z,1006.53
2016-07-31T11:03:38.625Z,1006.47
2016-07-31T11:04:42.283Z,1006.53
2016-07-31T11:05:45.937Z,1006.59
2016-07-31T11:06:49.648Z,1006.48
2016-07-31T11:07:53.279Z,1006.57
2016-07-31T11:08:56.922Z,1006.46
2016-07-31T11:10:00.616Z,1006.52
2016-07-31T11:11:04.324Z,1006.48
2016-07-31T11:12:07.997Z,1006.48
2016-07-31T11:13:11.669Z,1006.46
2016-07-31T11:14:15.540Z,1006.46
2016-07-31T11:16:22.505Z,1006.58
2016-07-31T11:17:26.184Z,1006.61
2016-07-31T11:18:30.076Z,1006.62
2016-07-31T11:19:33.737Z,1006.62
2016-07-31T11:20:37.428Z,1006.64
2016-07-31T11:21:41.100Z,1006.64
2016-07-31T11:22:44.799Z,1006.57
2016-07-31T11:23:48.926Z,1006.71
2016-07-31T11:24:52.595Z,1006.74
2016-07-31T11:25:56.284Z,1006.76
2016-07-31T11:27:00.131Z,1006.81
2016-07-31T11:28:03.787Z,1006.84
2016-07-31T11:29:07.473Z,1006.78
2016-07-31T11:30:11.155Z,1006.85
2016-07-31T11:31:14.802Z,1006.83
2016-07-31T11:32:18.480Z,1006.91
2016-07-31T11:33:22.168Z,1006.89
2016-07-31T11:34:25.860Z,1006.87
2016-07-31T11:35:29.587Z,1006.82
2016-07-31T11:36:33.474Z,1006.80
2016-07-31T11:37:37.172Z,1006.93
2016-07-31T11:38:40.855Z,1006.87
2016-07-31T11:39:44.570Z,1006.90
2016-07-31T11:40:48.281Z,1006.81
2016-07-31T11:41:51.927Z,1006.80
2016-07-31T11:42:55.594Z,1006.76
2016-07-31T11:43:59.303Z,1006.77
2016-07-31T11:45:02.967Z,1006.72
2016-07-31T11:46:06.632Z,1006.89
2016-07-31T11:47:10.321Z,1006.87
2016-07-31T11:48:13.990Z,1006.90
2016-07-31T11:49:17.687Z,1006.81
2016-07-31T11:50:21.533Z,1006.90
2016-07-31T11:51:25.216Z,1006.88
2016-07-31T11:52:28.881Z,1006.89
2016-07-31T11:53:32.550Z,1006.91
2016-07-31T11:54:36.206Z,1006.91
2016-07-31T11:55:39.871Z,1006.96
2016-07-31T11:56:43.627Z,1006.90
2016-07-31T11:57:47.329Z,1006.86
2016-07-31T11:58:51.015Z,1007.02
2016-07-31T11:59:54.683Z,1006.94
2016-07-31T12:00:58.363Z,1006.98
2016-07-31T12:02:02.051Z,1006.92
2016-07-31T12:03:05.689Z,1007.00
2016-07-31T12:04:09.409Z,1007.00
2016-07-31T12:05:13.068Z,1007.00
2016-07-31T12:06:16.759Z,1007.04
2016-07-31T12:07:20.415Z,1006.95
2016-07-31T12:08:24.081Z,1007.05
2016-07-31T12:09:27.772Z,1007.12
2016-07-31T12:10:31.406Z,1007.11
2016-07-31T12:11:35.088Z,1007.07
2016-07-31T12:12:38.786Z,1007.15
2016-07-31T12:13:42.454Z,1007.20
2016-07-31T12:14:46.433Z,1007.15
2016-07-31T12:15:50.090Z,1007.14
2016-07-31T12:16:53.765Z,1007.17
2016-07-31T12:17:58.348Z,1007.19
2016-07-31T12:19:01.985Z,1007.21
2016-07-31T12:20:05.680Z,1007.09
2016-07-31T12:21:09.341Z,1007.18
2016-07-31T12:22:13.022Z,1007.21
2016-07-31T12:23:16.676Z,1007.16
2016-07-31T12:24:20.448Z,1007.27
2016-07-31T12:25:24.152Z,1007.24
2016-07-31T12:26:27.918Z,1007.22
2016-07-31T12:27:31.621Z,1007.25
2016-07-31T12:28:35.486Z,1007.19
2016-07-31T12:29:39.180Z,1007.21
2016-07-31T12:31:46.141Z,1007.21
2016-07-31T12:32:49.804Z,1007.21
2016-07-31T12:33:53.469Z,1007.24
2016-07-31T12:34:57.176Z,1007.19
2016-07-31T12:36:00.875Z,1007.19
2016-07-31T12:37:04.568Z,1007.17
2016-07-31T12:38:08.266Z,1007.14
2016-07-31T12:39:11.939Z,1007.09
2016-07-31T12:40:15.641Z,1007.16
2016-07-31T12:41:19.333Z,1007.07
2016-07-31T12:42:23.025Z,1007.10
2016-07-31T12:43:26.712Z,1007.14
2016-07-31T12:44:30.368Z,1007.03
2016-07-31T12:45:34.069Z,1007.10
2016-07-31T12:46:37.765Z,1007.04
2016-07-31T12:47:41.403Z,1007.03
2016-07-31T12:48:45.103Z,1007.07
2016-07-31T12:49:48.774Z,1007.05
2016-07-31T12:50:52.428Z,1007.02
2016-07-31T12:51:56.104Z,1007.04
2016-07-31T12:52:59.772Z,1007.04
2016-07-31T12:54:03.622Z,1007.00
2016-07-31T12:55:07.315Z,1007.05
2016-07-31T12:56:10.993Z,1007.02
2016-07-31T12:57:14.682Z,1007.05
2016-07-31T12:58:18.338Z,1006.98
2016-07-31T12:59:21.996Z,1007.01
2016-07-31T13:00:25.715Z,1007.03
2016-07-31T13:01:29.401Z,1007.08
2016-07-31T13:02:33.069Z,1007.06
2016-07-31T13:03:36.774Z,1006.93
2016-07-31T13:04:40.483Z,1006.98
2016-07-31T13:05:44.182Z,1006.96
2016-07-31T13:06:47.862Z,1006.95
2016-07-31T13:07:51.541Z,1007.01
2016-07-31T13:08:55.230Z,1006.99
2016-07-31T13:09:58.930Z,1006.89
2016-07-31T13:11:02.619Z,1006.89
2016-07-31T13:12:06.289Z,1006.84
2016-07-31T13:13:09.975Z,1006.86